Time;durP1;ratioP1;P1;durP2;ratioP2;P2;SDS_P1;SDS_P2;PMS_P1;PMS_P2;Temp;Humidity;BMP_temperature;BMP_pressure;BME280_temperature;BME280_humidity;BME280_pressure;Samples;Min_cycle;Max_cycle;Signal;HPM_P1;HPM_P2
2021/09/04 00:00:24;;;;;;;7.00;5.75;;;18.80;99.90;;;;;;5091182;28;20028;-63
2021/09/04 00:02:50;;;;;;;8.93;6.45;;;18.70;99.90;;;;;;5089010;28;20028;-64
2021/09/04 00:05:16;;;;;;;12.45;8.32;;;18.70;99.90;;;;;;5091352;28;20085;-64
2021/09/04 00:07:41;;;;;;;12.02;6.90;;;18.70;99.90;;;;;;5090100;28;20028;-64
2021/09/04 00:10:09;;;;;;;9.65;6.03;;;18.70;99.90;;;;;;5090922;28;20445;-64
2021/09/04 00:12:35;;;;;;;8.10;5.95;;;18.80;99.90;;;;;;5090068;28;20040;-65
2021/09/04 00:15:01;;;;;;;10.60;6.55;;;18.80;99.90;;;;;;5072171;28;20070;-64
2021/09/04 00:17:27;;;;;;;7.70;6.18;;;18.80;99.90;;;;;;5090991;28;20028;-63
2021/09/04 00:19:53;;;;;;;8.23;5.32;;;18.90;99.90;;;;;;5090677;28;20043;-63
2021/09/04 00:22:19;;;;;;;9.05;5.40;;;18.80;99.90;;;;;;5090764;28;20024;-64
2021/09/04 00:24:44;;;;;;;7.72;5.95;;;18.80;99.90;;;;;;5088790;28;20051;-64
2021/09/04 00:27:10;;;;;;;10.02;5.70;;;18.80;99.90;;;;;;5090768;28;20124;-64
2021/09/04 00:29:36;;;;;;;9.65;6.05;;;18.80;99.90;;;;;;5089742;28;20115;-63
2021/09/04 00:32:03;;;;;;;12.75;6.00;;;18.60;99.90;;;;;;5090407;28;20039;-64
2021/09/04 00:34:29;;;;;;;7.78;6.38;;;18.50;99.90;;;;;;5090588;28;20111;-64
2021/09/04 00:36:54;;;;;;;10.13;5.60;;;18.60;99.90;;;;;;5089776;28;20103;-63
2021/09/04 00:39:20;;;;;;;9.38;6.15;;;18.60;99.90;;;;;;5089628;28;20024;-63
2021/09/04 00:41:46;;;;;;;11.80;6.50;;;18.50;99.90;;;;;;5090363;28;20020;-63
2021/09/04 00:44:17;;;;;;;8.70;6.30;;;18.50;99.90;;;;;;5090559;28;20024;-63
2021/09/04 00:46:43;;;;;;;9.73;6.18;;;18.50;99.90;;;;;;5090162;28;20058;-65
2021/09/04 00:49:09;;;;;;;7.82;6.03;;;18.60;99.90;;;;;;5091136;28;20028;-64
2021/09/04 00:51:35;;;;;;;7.85;6.43;;;18.50;99.90;;;;;;5091296;28;20450;-63
2021/09/04 00:54:01;;;;;;;10.13;6.80;;;18.40;99.90;;;;;;5090031;28;20493;-63
2021/09/04 00:56:27;;;;;;;12.02;7.43;;;18.40;99.90;;;;;;5090784;28;20068;-63
2021/09/04 00:58:53;;;;;;;12.32;6.65;;;18.50;99.90;;;;;;5088647;28;20386;-63
2021/09/04 01:01:20;;;;;;;8.40;6.28;;;18.40;99.90;;;;;;5090679;28;20036;-63
2021/09/04 01:03:45;;;;;;;9.63;6.75;;;18.50;99.90;;;;;;5089656;28;20432;-63
2021/09/04 01:06:13;;;;;;;7.97;6.78;;;18.40;99.90;;;;;;5088953;28;20024;-63
2021/09/04 01:08:40;;;;;;;9.52;7.25;;;18.40;99.90;;;;;;5088764;28;20024;-63
2021/09/04 01:11:08;;;;;;;7.05;6.13;;;18.40;99.90;;;;;;5089288;28;20473;-63
2021/09/04 01:13:34;;;;;;;14.75;6.18;;;18.30;99.90;;;;;;5090695;28;20462;-63
2021/09/04 01:16:00;;;;;;;8.18;6.22;;;18.30;99.90;;;;;;5090260;28;20032;-62
2021/09/04 01:18:25;;;;;;;7.55;6.20;;;18.30;99.90;;;;;;5091539;28;20161;-63
2021/09/04 01:20:51;;;;;;;11.32;6.63;;;18.20;99.90;;;;;;5092318;28;20114;-63
2021/09/04 01:23:17;;;;;;;10.57;7.15;;;18.20;99.90;;;;;;5094505;28;20036;-64
2021/09/04 01:25:50;;;;;;;8.07;6.57;;;18.20;99.90;;;;;;5092764;28;20456;-64
2021/09/04 01:28:16;;;;;;;8.73;5.82;;;18.10;99.90;;;;;;5094222;28;20024;-63
2021/09/04 01:30:41;;;;;;;10.90;6.43;;;18.00;99.90;;;;;;5092792;28;20038;-64
2021/09/04 01:33:10;;;;;;;8.60;7.20;;;18.00;99.90;;;;;;5093489;28;20032;-63
2021/09/04 01:35:35;;;;;;;8.35;6.10;;;18.00;99.90;;;;;;5094034;28;20020;-63
2021/09/04 01:38:01;;;;;;;11.82;6.95;;;18.10;99.90;;;;;;5091916;28;20119;-62
2021/09/04 01:40:26;;;;;;;8.35;6.63;;;18.10;99.90;;;;;;5093889;28;20032;-63
2021/09/04 01:42:52;;;;;;;8.48;6.28;;;18.10;99.90;;;;;;5093286;28;20050;-63
2021/09/04 01:45:18;;;;;;;11.38;6.88;;;18.00;99.90;;;;;;5093554;28;20388;-62
2021/09/04 01:47:44;;;;;;;10.32;6.95;;;17.90;99.90;;;;;;5092140;28;20158;-62
2021/09/04 01:50:13;;;;;;;9.70;6.65;;;17.90;99.90;;;;;;5093408;28;20359;-63
2021/09/04 01:52:41;;;;;;;7.70;6.28;;;17.80;99.90;;;;;;5092092;28;20115;-62
2021/09/04 01:55:08;;;;;;;9.45;7.18;;;17.90;99.90;;;;;;5091620;28;20028;-63
2021/09/04 01:57:34;;;;;;;11.32;7.50;;;17.90;99.90;;;;;;5093140;28;20039;-63
2021/09/04 01:59:59;;;;;;;10.80;6.95;;;17.90;99.90;;;;;;5093184;28;20031;-63
2021/09/04 02:02:25;;;;;;;8.32;6.20;;;17.90;99.90;;;;;;5092125;28;20400;-62
2021/09/04 02:04:51;;;;;;;9.77;6.25;;;17.80;99.90;;;;;;5092708;28;20035;-63
2021/09/04 02:07:16;;;;;;;7.72;6.18;;;17.90;99.90;;;;;;5092105;28;20062;-62
2021/09/04 02:09:42;;;;;;;7.22;6.43;;;17.80;99.90;;;;;;5093060;28;20429;-62
2021/09/04 02:12:07;;;;;;;9.40;6.65;;;17.80;99.90;;;;;;5091292;28;20034;-63
2021/09/04 02:14:33;;;;;;;9.07;5.82;;;17.70;99.90;;;;;;5093010;28;20040;-63
2021/09/04 02:16:59;;;;;;;7.65;6.50;;;17.80;99.90;;;;;;5092594;28;20398;-62
2021/09/04 02:19:24;;;;;;;8.25;6.32;;;17.80;99.90;;;;;;5093203;28;20110;-63
2021/09/04 02:21:50;;;;;;;10.52;6.90;;;17.70;99.90;;;;;;5091131;28;20035;-63
2021/09/04 02:24:16;;;;;;;11.43;7.30;;;17.70;99.90;;;;;;5092816;28;20055;-63
2021/09/04 02:26:41;;;;;;;9.15;6.93;;;17.70;99.90;;;;;;5093200;28;20127;-63
2021/09/04 02:29:07;;;;;;;9.50;7.40;;;17.70;99.90;;;;;;5091690;28;20329;-63
2021/09/04 02:31:33;;;;;;;8.63;7.38;;;17.70;99.90;;;;;;5091413;28;20441;-62
2021/09/04 02:33:58;;;;;;;8.68;6.57;;;17.70;99.90;;;;;;5092202;28;20063;-62
2021/09/04 02:36:25;;;;;;;9.90;7.38;;;17.70;99.90;;;;;;5093128;28;20111;-62
2021/09/04 02:38:51;;;;;;;9.68;6.80;;;17.70;99.90;;;;;;5090480;28;20024;-63
2021/09/04 02:41:17;;;;;;;9.27;7.13;;;17.60;99.90;;;;;;5092627;28;20032;-62
2021/09/04 02:43:43;;;;;;;10.02;7.10;;;17.70;99.90;;;;;;5091586;28;20024;-62
2021/09/04 02:46:09;;;;;;;8.43;6.70;;;17.60;99.90;;;;;;5092177;28;20028;-62
2021/09/04 02:48:35;;;;;;;12.48;7.15;;;17.60;99.90;;;;;;5091365;28;20031;-63
2021/09/04 02:51:01;;;;;;;8.90;6.50;;;17.60;99.90;;;;;;5091936;28;20035;-63
2021/09/04 02:53:27;;;;;;;8.25;6.72;;;17.60;99.90;;;;;;5092824;28;20035;-63
2021/09/04 02:55:53;;;;;;;8.00;5.97;;;17.50;99.90;;;;;;5090639;28;20107;-63
2021/09/04 02:58:19;;;;;;;8.32;6.97;;;17.50;99.90;;;;;;5090977;28;20032;-63
2021/09/04 03:00:45;;;;;;;10.55;7.57;;;17.60;99.90;;;;;;5092100;28;20040;-63
2021/09/04 03:03:10;;;;;;;6.80;5.95;;;17.60;99.90;;;;;;5090355;28;20119;-63
2021/09/04 03:05:36;;;;;;;9.57;7.10;;;17.60;99.90;;;;;;5092304;28;20024;-63
2021/09/04 03:08:02;;;;;;;9.77;6.90;;;17.60;99.90;;;;;;5091823;28;20028;-63
2021/09/04 03:10:28;;;;;;;11.43;7.55;;;17.60;99.90;;;;;;5092048;28;20032;-62
2021/09/04 03:12:54;;;;;;;10.95;6.63;;;17.60;99.90;;;;;;5091434;28;20020;-63
2021/09/04 03:15:20;;;;;;;8.32;6.43;;;17.50;99.90;;;;;;5091962;28;20076;-62
2021/09/04 03:17:46;;;;;;;9.18;6.95;;;17.60;99.90;;;;;;5090535;28;20087;-63
2021/09/04 03:20:12;;;;;;;10.05;6.05;;;17.50;99.90;;;;;;5091231;28;20036;-62
2021/09/04 03:22:38;;;;;;;8.10;6.80;;;17.50;99.90;;;;;;5091925;28;20032;-62
2021/09/04 03:25:04;;;;;;;9.35;6.68;;;17.50;99.90;;;;;;5091550;28;20127;-62
2021/09/04 03:27:30;;;;;;;8.02;6.28;;;17.50;99.90;;;;;;5090643;28;20055;-62
2021/09/04 03:29:57;;;;;;;11.45;6.65;;;17.50;99.90;;;;;;5091000;28;20031;-63
2021/09/04 03:32:22;;;;;;;8.93;6.50;;;17.40;99.90;;;;;;5091763;28;20036;-62
2021/09/04 03:34:50;;;;;;;7.15;6.18;;;17.50;99.90;;;;;;5090679;28;20480;-63
2021/09/04 03:37:15;;;;;;;8.23;7.03;;;17.40;99.90;;;;;;5089789;28;20032;-62
2021/09/04 03:39:41;;;;;;;7.55;6.07;;;17.40;99.90;;;;;;5090428;28;20046;-62
2021/09/04 03:42:07;;;;;;;14.98;6.38;;;17.30;99.90;;;;;;5090350;28;20024;-62
2021/09/04 03:44:32;;;;;;;10.80;7.45;;;17.40;99.90;;;;;;5091738;28;20089;-63
2021/09/04 03:46:58;;;;;;;10.05;7.50;;;17.40;99.90;;;;;;5089423;28;20031;-63
2021/09/04 03:49:24;;;;;;;12.30;7.75;;;17.40;99.90;;;;;;5091332;28;20524;-63
2021/09/04 03:51:49;;;;;;;7.30;6.45;;;17.40;99.90;;;;;;5091586;28;20388;-63
2021/09/04 03:54:15;;;;;;;9.18;7.35;;;17.40;99.90;;;;;;5089670;28;20027;-63
2021/09/04 03:56:41;;;;;;;8.85;7.18;;;17.30;99.90;;;;;;5091337;28;20397;-63
2021/09/04 03:59:06;;;;;;;8.27;6.70;;;17.10;99.90;;;;;;5089503;28;20024;-63
2021/09/04 04:01:33;;;;;;;10.43;7.00;;;17.10;99.90;;;;;;5091151;28;20433;-63
2021/09/04 04:03:58;;;;;;;9.43;7.45;;;17.00;99.90;;;;;;5090749;28;20024;-62
2021/09/04 04:06:24;;;;;;;9.40;6.95;;;17.00;99.90;;;;;;5091090;28;20428;-63
2021/09/04 04:08:50;;;;;;;8.90;7.30;;;17.00;99.90;;;;;;5089593;28;20031;-63
2021/09/04 04:11:15;;;;;;;11.80;7.47;;;17.10;99.90;;;;;;5090555;28;20073;-63
2021/09/04 04:13:41;;;;;;;9.65;7.78;;;17.00;99.90;;;;;;5090952;28;20072;-63
2021/09/04 04:16:08;;;;;;;14.07;8.40;;;16.90;99.90;;;;;;5089279;28;20026;-63
2021/09/04 04:18:34;;;;;;;9.20;7.57;;;16.90;99.90;;;;;;5091199;28;20093;-63
2021/09/04 04:21:00;;;;;;;10.70;7.53;;;16.80;99.90;;;;;;5089363;28;20032;-64
2021/09/04 04:23:26;;;;;;;11.25;8.60;;;16.90;99.90;;;;;;5089500;28;20032;-63
2021/09/04 04:25:52;;;;;;;11.02;7.53;;;16.90;99.90;;;;;;5089482;28;20090;-62
2021/09/04 04:28:18;;;;;;;12.63;7.80;;;16.80;99.90;;;;;;5088931;28;20040;-62
2021/09/04 04:30:45;;;;;;;13.52;8.18;;;16.80;99.90;;;;;;5090870;28;20024;-63
2021/09/04 04:33:11;;;;;;;9.68;7.93;;;16.70;99.90;;;;;;5090230;28;20020;-62
2021/09/04 04:35:36;;;;;;;10.40;8.25;;;16.70;99.90;;;;;;5089563;28;20024;-63
2021/09/04 04:38:02;;;;;;;15.82;8.73;;;16.60;99.90;;;;;;5088667;28;20487;-63
2021/09/04 04:40:28;;;;;;;11.27;8.05;;;16.50;99.90;;;;;;5089501;28;20038;-63
2021/09/04 04:42:53;;;;;;;13.98;8.07;;;16.60;99.90;;;;;;5089609;28;20445;-62
2021/09/04 04:45:19;;;;;;;12.27;8.65;;;16.60;99.90;;;;;;5088728;28;20024;-62
2021/09/04 04:47:45;;;;;;;9.90;7.97;;;16.60;99.90;;;;;;5089497;28;20028;-62
2021/09/04 04:50:11;;;;;;;10.75;7.28;;;16.60;99.90;;;;;;5089959;28;20069;-63
2021/09/04 04:52:38;;;;;;;13.50;8.45;;;16.60;99.90;;;;;;5092512;28;20067;-62
2021/09/04 04:55:04;;;;;;;10.95;8.00;;;16.50;99.90;;;;;;5094252;28;20052;-62
2021/09/04 04:57:29;;;;;;;12.38;8.65;;;16.50;99.90;;;;;;5092924;28;20032;-63
2021/09/04 04:59:55;;;;;;;18.35;8.57;;;16.40;99.90;;;;;;5093636;28;20081;-63
2021/09/04 05:02:20;;;;;;;11.30;8.50;;;16.50;99.90;;;;;;5092497;28;20028;-63
2021/09/04 05:04:46;;;;;;;11.77;8.70;;;16.40;99.90;;;;;;5094669;28;20110;-63
2021/09/04 05:07:12;;;;;;;12.88;9.20;;;16.50;99.90;;;;;;5093852;28;20028;-63
2021/09/04 05:09:37;;;;;;;12.73;8.73;;;16.60;99.90;;;;;;5094737;28;20063;-63
2021/09/04 05:12:03;;;;;;;12.10;8.73;;;16.50;99.90;;;;;;5093961;28;20350;-63
2021/09/04 05:14:29;;;;;;;10.35;7.72;;;16.50;99.90;;;;;;5094359;28;20492;-64
2021/09/04 05:16:54;;;;;;;12.73;8.80;;;16.50;99.90;;;;;;5093053;28;20471;-63
2021/09/04 05:19:20;;;;;;;15.77;8.90;;;16.50;99.90;;;;;;5092453;28;20036;-62
2021/09/04 05:21:46;;;;;;;13.68;7.70;;;16.50;99.90;;;;;;5094075;28;20059;-63
2021/09/04 05:24:11;;;;;;;12.15;8.63;;;16.60;99.90;;;;;;5093580;28;20044;-63
2021/09/04 05:26:37;;;;;;;11.27;8.30;;;16.70;99.90;;;;;;5094037;28;20385;-63
2021/09/04 05:29:03;;;;;;;10.55;8.15;;;16.60;99.90;;;;;;5092253;28;20065;-63
2021/09/04 05:31:28;;;;;;;9.80;8.05;;;16.70;99.90;;;;;;5093894;28;20516;-64
2021/09/04 05:33:55;;;;;;;11.20;7.95;;;16.60;99.90;;;;;;5092960;28;20063;-62
2021/09/04 05:36:21;;;;;;;11.52;9.00;;;16.60;99.90;;;;;;5093213;28;20027;-63
2021/09/04 05:38:46;;;;;;;10.35;8.32;;;16.70;99.90;;;;;;5093792;28;20106;-63
2021/09/04 05:41:12;;;;;;;14.98;8.98;;;16.70;99.90;;;;;;5092124;28;20024;-63
2021/09/04 05:43:37;;;;;;;9.77;7.80;;;16.90;99.90;;;;;;5094454;28;20032;-63
2021/09/04 05:46:03;;;;;;;9.23;7.13;;;17.00;99.90;;;;;;5093031;28;20060;-64
2021/09/04 05:48:29;;;;;;;13.20;8.30;;;17.10;99.90;;;;;;5093814;28;20165;-64
2021/09/04 05:50:55;;;;;;;11.70;8.18;;;17.20;99.90;;;;;;5093690;28;20505;-64
2021/09/04 05:53:20;;;;;;;12.43;8.43;;;17.20;99.90;;;;;;5091940;28;20028;-63
2021/09/04 05:55:46;;;;;;;10.43;7.78;;;17.10;99.90;;;;;;5093763;28;20055;-64
2021/09/04 05:58:12;;;;;;;11.02;8.73;;;17.30;99.90;;;;;;5091691;28;20032;-64
2021/09/04 06:00:37;;;;;;;9.05;7.40;;;17.40;99.90;;;;;;5093579;28;20028;-63
2021/09/04 06:03:03;;;;;;;10.13;7.78;;;17.50;99.90;;;;;;5093024;28;20024;-64
2021/09/04 06:05:29;;;;;;;10.13;7.25;;;17.50;99.90;;;;;;5092960;28;20539;-63
2021/09/04 06:07:55;;;;;;;11.63;7.93;;;17.40;99.90;;;;;;5093470;28;20024;-63
2021/09/04 06:10:21;;;;;;;12.38;8.02;;;17.50;99.90;;;;;;5091372;28;20077;-62
2021/09/04 06:12:46;;;;;;;11.07;8.20;;;17.50;99.90;;;;;;5092047;28;20498;-63
2021/09/04 06:15:12;;;;;;;14.88;8.43;;;17.50;99.90;;;;;;5092454;28;20050;-63
2021/09/04 06:17:38;;;;;;;9.98;7.43;;;17.60;99.90;;;;;;5091913;28;20128;-62
2021/09/04 06:20:06;;;;;;;12.05;7.35;;;17.80;99.90;;;;;;5091120;28;20107;-63
2021/09/04 06:22:32;;;;;;;9.23;7.32;;;18.00;99.90;;;;;;5091484;28;20038;-62
2021/09/04 06:24:57;;;;;;;10.88;7.50;;;18.10;99.90;;;;;;5091262;28;20142;-63
2021/09/04 06:27:23;;;;;;;13.15;8.23;;;18.10;99.90;;;;;;5092204;28;20469;-63
2021/09/04 06:29:48;;;;;;;8.65;7.53;;;18.20;99.90;;;;;;5091760;28;20020;-64
2021/09/04 06:32:14;;;;;;;9.82;7.70;;;18.30;99.90;;;;;;5092177;28;20020;-64
2021/09/04 06:34:41;;;;;;;9.60;7.80;;;18.50;99.90;;;;;;5092743;28;20028;-63
2021/09/04 06:37:07;;;;;;;16.38;7.10;;;18.60;99.90;;;;;;5092003;28;20115;-65
2021/09/04 06:39:33;;;;;;;10.65;6.68;;;18.80;99.90;;;;;;5091039;28;20059;-63
2021/09/04 06:41:58;;;;;;;10.43;6.80;;;19.00;99.90;;;;;;5092373;28;20385;-63
2021/09/04 06:44:25;;;;;;;10.35;7.32;;;19.10;99.90;;;;;;5090666;28;20370;-65
2021/09/04 06:46:52;;;;;;;18.40;7.40;;;19.30;99.90;;;;;;5091965;28;20037;-64
2021/09/04 06:49:19;;;;;;;9.90;6.57;;;19.30;99.90;;;;;;5091316;28;20032;-65
2021/09/04 06:51:47;;;;;;;6.25;4.50;;;19.40;99.90;;;;;;5070496;28;20029;-56
2021/09/04 06:54:14;;;;;;;12.52;6.15;;;19.70;99.90;;;;;;5073797;28;20043;-54
2021/09/04 06:56:42;;;;;;;10.98;4.80;;;20.10;99.90;;;;;;5074843;28;20032;-54
2021/09/04 06:59:12;;;;;;;8.82;5.30;;;20.60;99.90;;;;;;5091741;28;20032;-52
2021/09/04 07:01:39;;;;;;;8.55;5.80;;;20.80;99.90;;;;;;5092969;28;20032;-53
2021/09/04 07:04:09;;;;;;;13.38;5.30;;;20.90;99.90;;;;;;5083939;28;20032;-56
2021/09/04 07:06:36;;;;;;;8.70;5.20;;;21.10;99.90;;;;;;5089894;28;20032;-53
2021/09/04 07:09:03;;;;;;;8.95;4.55;;;21.10;99.90;;;;;;5073607;28;20029;-53
2021/09/04 07:11:31;;;;;;;8.20;5.40;;;21.60;99.90;;;;;;5070223;28;20039;-55
2021/09/04 07:13:58;;;;;;;6.20;5.07;;;21.90;99.90;;;;;;5069878;28;20117;-53
2021/09/04 07:16:25;;;;;;;6.63;5.30;;;22.10;99.90;;;;;;5070784;28;20217;-54
2021/09/04 07:18:51;;;;;;;7.20;5.05;;;22.00;99.90;;;;;;5080918;28;20020;-53
2021/09/04 07:21:19;;;;;;;8.82;5.43;;;21.90;99.90;;;;;;5073820;28;20384;-52
2021/09/04 07:23:45;;;;;;;10.55;5.22;;;22.00;99.90;;;;;;5090148;28;20362;-52
2021/09/04 07:26:12;;;;;;;7.15;4.88;;;22.00;99.90;;;;;;5089358;28;20032;-52
2021/09/04 07:28:38;;;;;;;5.53;4.63;;;22.30;99.90;;;;;;5091103;28;20077;-52
2021/09/04 07:31:04;;;;;;;8.07;5.00;;;22.50;99.90;;;;;;5088745;28;20059;-52
2021/09/04 07:33:30;;;;;;;7.97;6.03;;;22.60;99.90;;;;;;5088710;28;20035;-55
2021/09/04 07:35:56;;;;;;;5.88;4.90;;;22.60;99.90;;;;;;5088735;28;20081;-53
2021/09/04 07:38:23;;;;;;;8.32;5.25;;;22.70;99.90;;;;;;5089195;28;20103;-52
2021/09/04 07:40:50;;;;;;;5.70;5.10;;;22.70;99.90;;;;;;5090152;28;20059;-52
2021/09/04 07:43:16;;;;;;;10.77;6.35;;;22.90;99.90;;;;;;5089731;28;20024;-52
2021/09/04 07:45:42;;;;;;;7.32;5.47;;;22.90;99.90;;;;;;5089867;28;20433;-53
2021/09/04 07:48:07;;;;;;;9.27;5.75;;;23.00;99.90;;;;;;5089232;28;20271;-52
2021/09/04 07:50:34;;;;;;;6.30;5.15;;;23.10;99.90;;;;;;5089061;28;20072;-51
2021/09/04 07:52:59;;;;;;;8.07;5.45;;;23.30;99.90;;;;;;5089669;28;20447;-52
2021/09/04 07:55:25;;;;;;;8.38;5.82;;;23.40;99.50;;;;;;5088670;28;20028;-52
2021/09/04 07:57:50;;;;;;;7.00;5.05;;;23.60;99.30;;;;;;5087696;28;20084;-52
2021/09/04 08:00:16;;;;;;;7.13;4.63;;;23.80;99.20;;;;;;5087639;28;20027;-50
2021/09/04 08:02:43;;;;;;;8.05;5.47;;;23.70;98.90;;;;;;5088680;28;20119;-52
2021/09/04 08:05:09;;;;;;;7.47;5.00;;;23.90;98.40;;;;;;5087591;28;20051;-50
2021/09/04 08:07:35;;;;;;;8.38;5.38;;;23.90;98.10;;;;;;5088091;28;20438;-52
2021/09/04 08:10:01;;;;;;;5.85;5.28;;;24.10;98.10;;;;;;5088107;28;20089;-52
2021/09/04 08:12:27;;;;;;;6.45;4.80;;;24.20;98.00;;;;;;5088955;28;20342;-51
2021/09/04 08:14:53;;;;;;;8.52;5.68;;;24.40;97.90;;;;;;5070863;28;20466;-52
2021/09/04 08:17:18;;;;;;;6.78;5.00;;;24.50;97.40;;;;;;5088873;28;20469;-52
2021/09/04 08:19:44;;;;;;;7.63;5.50;;;24.40;97.20;;;;;;5088999;28;20524;-52
2021/09/04 08:22:10;;;;;;;5.78;4.90;;;24.60;96.90;;;;;;5086384;28;20028;-53
2021/09/04 08:24:36;;;;;;;8.27;4.60;;;24.60;97.00;;;;;;5070053;28;20363;-52
2021/09/04 08:27:02;;;;;;;5.95;5.32;;;24.50;96.80;;;;;;5067987;28;20112;-52
2021/09/04 08:29:27;;;;;;;11.77;4.85;;;24.80;97.10;;;;;;5066968;28;20035;-56
2021/09/04 08:31:53;;;;;;;7.55;5.20;;;24.60;96.80;;;;;;5066858;28;20032;-51
2021/09/04 08:34:20;;;;;;;8.60;5.32;;;24.60;96.90;;;;;;5080175;28;20039;-51
2021/09/04 08:36:45;;;;;;;6.00;4.47;;;25.00;96.70;;;;;;5087345;28;20067;-51
2021/09/04 08:39:12;;;;;;;7.47;5.15;;;25.20;96.40;;;;;;5087732;28;20052;-51
2021/09/04 08:41:38;;;;;;;4.60;4.20;;;25.40;95.60;;;;;;5086938;28;20070;-54
2021/09/04 08:44:06;;;;;;;6.40;5.05;;;25.40;95.70;;;;;;5088552;28;20025;-52
2021/09/04 08:46:34;;;;;;;6.75;4.90;;;25.70;95.60;;;;;;5088931;28;20027;-52
2021/09/04 08:49:02;;;;;;;5.65;4.60;;;25.70;95.20;;;;;;5087113;28;20067;-53
2021/09/04 08:51:28;;;;;;;8.40;4.70;;;25.70;94.90;;;;;;5087189;28;20477;-52
2021/09/04 08:53:54;;;;;;;4.53;3.80;;;26.00;94.60;;;;;;5087152;28;20119;-50
2021/09/04 08:56:20;;;;;;;5.50;4.22;;;25.80;94.30;;;;;;5087813;28;20449;-52
2021/09/04 08:58:45;;;;;;;9.05;4.75;;;25.80;94.40;;;;;;5086428;28;20042;-52
2021/09/04 09:01:23;;;;;;;11.07;4.78;;;26.00;94.50;;;;;;5087529;28;20028;-53
2021/09/04 09:03:50;;;;;;;6.05;4.38;;;26.40;94.00;;;;;;5088163;28;20032;-52
2021/09/04 09:06:27;;;;;;;10.23;4.97;;;26.60;93.40;;;;;;5086120;28;20035;-52
2021/09/04 09:08:53;;;;;;;11.93;4.72;;;27.00;93.00;;;;;;5086734;28;20021;-51
2021/09/04 09:11:19;;;;;;;6.68;4.60;;;26.90;92.70;;;;;;5088043;28;20031;-52
2021/09/04 09:13:47;;;;;;;7.97;5.10;;;26.90;92.60;;;;;;5088067;28;20027;-52
2021/09/04 09:16:14;;;;;;;17.40;5.68;;;26.70;92.90;;;;;;5087600;28;20043;-52
2021/09/04 09:18:40;;;;;;;6.18;4.35;;;27.00;92.80;;;;;;5087911;28;20452;-51
2021/09/04 09:21:06;;;;;;;9.88;4.28;;;27.30;92.20;;;;;;5087180;28;20028;-54
2021/09/04 09:23:32;;;;;;;6.53;4.78;;;27.30;92.00;;;;;;5069403;28;20099;-51
2021/09/04 09:26:09;;;;;;;6.68;4.63;;;27.40;91.90;;;;;;5086785;28;20518;-50
2021/09/04 09:28:35;;;;;;;5.68;4.05;;;27.50;91.70;;;;;;5088066;28;20105;-53
2021/09/04 09:31:01;;;;;;;5.88;4.53;;;27.60;91.30;;;;;;5086448;28;20028;-51
2021/09/04 09:33:28;;;;;;;8.55;4.82;;;27.80;91.40;;;;;;5085480;28;20028;-51
2021/09/04 09:35:58;;;;;;;8.32;4.78;;;27.90;90.30;;;;;;5086210;28;20089;-52
2021/09/04 09:38:30;;;;;;;5.85;4.05;;;27.60;90.80;;;;;;5085993;28;20765;-52
2021/09/04 09:40:56;;;;;;;7.65;4.95;;;27.40;91.20;;;;;;5090711;28;20071;-52
2021/09/04 09:43:24;;;;;;;8.68;4.43;;;27.60;91.00;;;;;;5089775;28;20047;-52
2021/09/04 09:45:52;;;;;;;8.00;4.50;;;27.30;90.80;;;;;;5090302;28;20060;-53
2021/09/04 09:48:32;;;;;;;6.75;5.10;;;27.60;91.00;;;;;;5091497;28;20451;-52
2021/09/04 09:51:04;;;;;;;9.02;4.57;;;27.90;90.90;;;;;;5090319;28;20480;-52
2021/09/04 09:53:30;;;;;;;10.95;4.22;;;27.80;90.60;;;;;;5091312;28;20024;-53
2021/09/04 09:55:58;;;;;;;4.47;4.07;;;27.80;90.40;;;;;;5090316;28;20473;-55
2021/09/04 09:58:27;;;;;;;5.75;3.65;;;28.20;90.10;;;;;;5089757;28;20585;-54
2021/09/04 10:00:57;;;;;;;8.40;4.85;;;28.40;90.00;;;;;;5078808;28;20066;-52
2021/09/04 10:03:28;;;;;;;6.35;4.95;;;28.40;90.00;;;;;;5075037;28;20051;-52
2021/09/04 10:05:55;;;;;;;8.68;5.30;;;28.30;89.70;;;;;;5092845;28;20499;-52
2021/09/04 10:08:23;;;;;;;5.70;4.30;;;28.20;89.00;;;;;;5089809;28;20115;-50
2021/09/04 10:10:49;;;;;;;6.47;4.90;;;28.50;89.90;;;;;;5092248;28;20028;-52
2021/09/04 10:13:15;;;;;;;5.60;4.43;;;28.10;89.40;;;;;;5089983;28;20020;-53
2021/09/04 10:15:48;;;;;;;4.50;4.10;;;28.50;89.40;;;;;;5091130;28;20085;-51
2021/09/04 10:18:14;;;;;;;4.40;4.00;;;29.00;89.00;;;;;;5073353;28;20078;-53
2021/09/04 10:20:40;;;;;;;6.75;4.47;;;29.50;88.30;;;;;;5092445;28;20028;-53
2021/09/04 10:23:43;;;;;;;6.60;4.65;;;29.70;87.00;;;;;;5090092;28;20019;-53
2021/09/04 10:26:31;;;;;;;4.80;3.97;;;29.20;87.00;;;;;;5076418;28;20072;-54
2021/09/04 10:29:10;;;;;;;5.80;4.65;;;29.70;86.80;;;;;;5090478;28;20025;-53
2021/09/04 10:31:43;;;;;;;6.28;4.35;;;29.60;85.70;;;;;;5091125;28;20028;-53
2021/09/04 10:34:11;;;;;;;8.73;3.83;;;29.50;85.90;;;;;;5090066;28;20138;-55
2021/09/04 10:36:36;;;;;;;5.53;3.90;;;29.50;85.70;;;;;;5092267;28;20020;-52
2021/09/04 10:39:02;;;;;;;8.85;3.90;;;29.70;85.10;;;;;;5090143;28;20024;-53
2021/09/04 10:41:34;;;;;;;5.88;3.88;;;30.20;84.80;;;;;;5089364;28;20032;-53
2021/09/04 10:44:05;;;;;;;6.22;4.03;;;30.50;84.20;;;;;;5091927;28;20401;-53
2021/09/04 10:46:31;;;;;;;;;;;30.60;83.40;;;;;;5089590;28;20095;-53
2021/09/04 10:49:01;;;;;;;4.93;4.03;;;30.90;82.80;;;;;;5090092;28;20002;-54
2021/09/04 10:51:47;;;;;;;5.60;3.87;;;30.60;78.90;;;;;;5089662;28;20350;-54
2021/09/04 10:54:40;;;;;;;4.22;3.80;;;30.00;78.60;;;;;;5089559;28;20284;-53
2021/09/04 10:57:16;;;;;;;3.97;3.28;;;29.70;80.60;;;;;;5092230;28;20081;-53
2021/09/04 11:00:20;;;;;;;11.05;4.03;;;29.70;81.90;;;;;;5091411;28;20024;-53
2021/09/04 11:02:53;;;;;;;6.90;4.25;;;29.90;80.50;;;;;;5086901;28;20070;-53
2021/09/04 11:05:49;;;;;;;5.22;3.58;;;29.80;79.60;;;;;;5091696;28;20384;-54
2021/09/04 11:08:21;;;;;;;4.68;3.53;;;29.90;80.30;;;;;;5073347;28;20075;-51
2021/09/04 11:10:49;;;;;;;4.40;3.30;;;30.50;78.70;;;;;;5089894;28;20107;-51
2021/09/04 11:13:17;;;;;;;5.63;3.83;;;30.40;78.50;;;;;;5090409;28;20024;-52
2021/09/04 11:15:44;;;;;;;5.50;3.53;;;30.10;77.00;;;;;;5089680;28;20487;-51
2021/09/04 11:18:17;;;;;;;5.97;3.90;;;29.90;77.70;;;;;;5090581;28;20103;-52
2021/09/04 11:20:50;;;;;;;8.13;4.07;;;30.10;78.00;;;;;;5089651;28;20539;-51
2021/09/04 11:23:24;;;;;;;4.10;3.55;;;30.50;77.20;;;;;;5088731;28;20461;-52
2021/09/04 11:25:50;;;;;;;6.63;3.15;;;30.80;76.50;;;;;;5089768;28;20429;-51
2021/09/04 11:28:30;;;;;;;4.50;3.78;;;30.90;75.40;;;;;;5088797;28;20024;-51
2021/09/04 11:30:56;;;;;;;3.75;3.15;;;30.80;75.40;;;;;;5089219;28;20111;-50
2021/09/04 11:33:22;;;;;;;5.60;3.50;;;30.90;76.50;;;;;;5088586;28;20135;-52
2021/09/04 11:35:48;;;;;;;4.30;3.83;;;30.80;74.80;;;;;;5090478;28;20039;-51
2021/09/04 11:38:14;;;;;;;6.65;3.30;;;30.90;74.20;;;;;;5088025;28;20032;-51
2021/09/04 11:40:40;;;;;;;5.57;3.40;;;31.10;73.90;;;;;;5090431;28;20369;-50
2021/09/04 11:43:06;;;;;;;6.03;3.35;;;31.40;72.20;;;;;;5090253;28;20024;-52
2021/09/04 11:45:33;;;;;;;4.35;3.95;;;31.60;72.30;;;;;;5089701;28;20031;-50
2021/09/04 11:48:05;;;;;;;3.08;2.75;;;31.80;71.20;;;;;;5090076;28;20040;-51
2021/09/04 11:50:32;;;;;;;4.13;3.33;;;31.70;72.30;;;;;;5089459;28;20059;-52
2021/09/04 11:52:59;;;;;;;3.60;3.13;;;31.80;70.30;;;;;;5088376;28;20024;-51
2021/09/04 11:55:29;;;;;;;3.63;3.33;;;31.80;70.10;;;;;;5088229;28;20406;-52
2021/09/04 11:57:57;;;;;;;5.90;3.72;;;32.10;70.10;;;;;;5090686;28;20118;-52
2021/09/04 12:00:24;;;;;;;6.97;3.35;;;32.40;69.70;;;;;;5087766;28;20027;-51
2021/09/04 12:03:10;;;;;;;5.28;3.42;;;32.30;70.90;;;;;;5088390;28;20027;-51
2021/09/04 12:05:42;;;;;;;4.70;3.33;;;32.30;69.60;;;;;;5088729;28;20043;-51
2021/09/04 12:08:10;;;;;;;4.78;3.47;;;32.10;68.80;;;;;;5088869;28;20032;-51
2021/09/04 12:10:38;;;;;;;4.15;3.15;;;31.90;70.50;;;;;;5089752;28;20028;-52
2021/09/04 12:13:07;;;;;;;6.70;3.00;;;31.80;70.60;;;;;;5088222;28;20434;-52
2021/09/04 12:15:34;;;;;;;5.05;4.03;;;32.10;69.70;;;;;;5087959;28;20024;-50
2021/09/04 12:18:06;;;;;;;3.08;2.78;;;31.70;67.10;;;;;;5089558;28;20456;-53
2021/09/04 12:20:40;;;;;;;7.88;3.17;;;31.40;66.50;;;;;;5088869;28;20087;-51
2021/09/04 12:23:15;;;;;;;4.15;3.65;;;31.30;67.20;;;;;;5089723;28;20028;-51
2021/09/04 12:25:42;;;;;;;4.00;3.40;;;31.80;68.80;;;;;;5089246;28;20188;-51
2021/09/04 12:28:10;;;;;;;5.65;3.28;;;31.90;66.40;;;;;;5088577;28;20028;-51
2021/09/04 12:31:10;;;;;;;6.18;4.38;;;31.90;66.30;;;;;;5088460;28;20482;-51
2021/09/04 12:33:51;;;;;;;7.70;3.65;;;31.80;67.50;;;;;;5088113;28;20032;-50
2021/09/04 12:36:37;;;;;;;3.80;3.33;;;31.80;67.40;;;;;;5087431;28;20437;-51
2021/09/04 12:39:13;;;;;;;3.10;2.90;;;32.20;65.50;;;;;;5089550;28;20108;-51
2021/09/04 12:41:39;;;;;;;6.80;2.95;;;32.00;66.70;;;;;;5089514;28;20028;-51
2021/09/04 12:44:09;;;;;;;5.32;3.25;;;32.10;65.90;;;;;;5089328;28;20084;-51